Terminal Aerodrome Forecast
Issued by NWS

Current Version | Previous Version | Text Only | Print | Product List | Glossary On
Versions: 1 2 3 4 5 6 7 8 9 10 11 12 13 14
385
FTUS42 TJSJ 302324
TAFJPS
TAF
TJPS 302324Z 0100/0124 08008KT P6SM FEW025 SCT050
     FM011300 14010KT P6SM FEW025
     FM011700 12010G20KT P6SM VCSH FEW030 SCT050=

USA.gov is the U.S. government's official web portal to all federal, state and local government web resources and services.